sensor_id;sensor_type;location;lat;lon;timestamp;temperature;humidity
35381;DHT22;21486;51.916;8.378;2022-10-31T00:02:00;12.60;91.50
35381;DHT22;21486;51.916;8.378;2022-10-31T00:04:26;12.60;91.60
35381;DHT22;21486;51.916;8.378;2022-10-31T00:06:51;12.50;91.50
35381;DHT22;21486;51.916;8.378;2022-10-31T00:09:16;12.50;91.70
35381;DHT22;21486;51.916;8.378;2022-10-31T00:11:42;12.50;91.90
35381;DHT22;21486;51.916;8.378;2022-10-31T00:14:07;12.40;91.80
35381;DHT22;21486;51.916;8.378;2022-10-31T00:16:33;12.40;91.90
35381;DHT22;21486;51.916;8.378;2022-10-31T00:18:59;12.30;91.90
35381;DHT22;21486;51.916;8.378;2022-10-31T00:21:25;12.40;91.90
35381;DHT22;21486;51.916;8.378;2022-10-31T00:23:51;12.30;92.10
35381;DHT22;21486;51.916;8.378;2022-10-31T00:26:17;12.30;92.10
35381;DHT22;21486;51.916;8.378;2022-10-31T00:28:43;12.30;92.30
35381;DHT22;21486;51.916;8.378;2022-10-31T00:31:09;12.20;92.20
35381;DHT22;21486;51.916;8.378;2022-10-31T00:33:35;12.20;92.40
35381;DHT22;21486;51.916;8.378;2022-10-31T00:36:02;12.10;92.50
35381;DHT22;21486;51.916;8.378;2022-10-31T00:38:28;12.00;92.60
35381;DHT22;21486;51.916;8.378;2022-10-31T00:40:53;12.00;92.80
35381;DHT22;21486;51.916;8.378;2022-10-31T00:43:18;12.10;92.80
35381;DHT22;21486;51.916;8.378;2022-10-31T00:45:44;11.90;92.90
35381;DHT22;21486;51.916;8.378;2022-10-31T00:48:10;11.90;92.80
35381;DHT22;21486;51.916;8.378;2022-10-31T00:50:35;11.90;92.70
35381;DHT22;21486;51.916;8.378;2022-10-31T00:53:01;11.80;92.80
35381;DHT22;21486;51.916;8.378;2022-10-31T00:55:26;11.90;93.00
35381;DHT22;21486;51.916;8.378;2022-10-31T00:57:52;11.80;93.20
35381;DHT22;21486;51.916;8.378;2022-10-31T01:00:17;11.80;93.60
35381;DHT22;21486;51.916;8.378;2022-10-31T01:02:43;11.70;93.30
35381;DHT22;21486;51.916;8.378;2022-10-31T01:05:08;11.70;93.10
35381;DHT22;21486;51.916;8.378;2022-10-31T01:07:37;11.60;93.20
35381;DHT22;21486;51.916;8.378;2022-10-31T01:10:03;11.60;93.20
35381;DHT22;21486;51.916;8.378;2022-10-31T01:12:29;11.70;93.20
35381;DHT22;21486;51.916;8.378;2022-10-31T01:14:55;11.70;93.30
35381;DHT22;21486;51.916;8.378;2022-10-31T01:17:20;11.60;93.30
35381;DHT22;21486;51.916;8.378;2022-10-31T01:19:46;11.60;93.30
35381;DHT22;21486;51.916;8.378;2022-10-31T01:22:11;11.50;93.40
35381;DHT22;21486;51.916;8.378;2022-10-31T01:24:36;11.50;93.60
35381;DHT22;21486;51.916;8.378;2022-10-31T01:27:02;11.50;93.60
35381;DHT22;21486;51.916;8.378;2022-10-31T01:29:28;11.50;93.40
35381;DHT22;21486;51.916;8.378;2022-10-31T01:33:02;11.40;93.40
35381;DHT22;21486;51.916;8.378;2022-10-31T01:35:28;11.40;93.60
35381;DHT22;21486;51.916;8.378;2022-10-31T01:37:53;11.40;93.60
35381;DHT22;21486;51.916;8.378;2022-10-31T01:40:19;11.30;93.70
35381;DHT22;21486;51.916;8.378;2022-10-31T01:42:45;11.30;93.60
35381;DHT22;21486;51.916;8.378;2022-10-31T01:45:10;11.30;93.80
35381;DHT22;21486;51.916;8.378;2022-10-31T01:47:44;11.20;93.80
35381;DHT22;21486;51.916;8.378;2022-10-31T01:50:34;11.20;93.80
35381;DHT22;21486;51.916;8.378;2022-10-31T01:53:01;11.20;93.80
35381;DHT22;21486;51.916;8.378;2022-10-31T01:55:30;11.30;93.60
35381;DHT22;21486;51.916;8.378;2022-10-31T01:58:33;11.30;93.60
35381;DHT22;21486;51.916;8.378;2022-10-31T02:00:57;11.20;93.80
35381;DHT22;21486;51.916;8.378;2022-10-31T02:03:25;11.30;93.90
35381;DHT22;21486;51.916;8.378;2022-10-31T02:05:53;11.20;93.90
35381;DHT22;21486;51.916;8.378;2022-10-31T02:08:25;11.30;94.00
35381;DHT22;21486;51.916;8.378;2022-10-31T02:10:51;11.30;94.00
35381;DHT22;21486;51.916;8.378;2022-10-31T02:13:18;11.30;93.60
35381;DHT22;21486;51.916;8.378;2022-10-31T02:15:47;11.30;93.80
35381;DHT22;21486;51.916;8.378;2022-10-31T02:18:14;11.30;93.90
35381;DHT22;21486;51.916;8.378;2022-10-31T02:26:41;11.30;93.50
35381;DHT22;21486;51.916;8.378;2022-10-31T02:37:29;11.40;94.00
35381;DHT22;21486;51.916;8.378;2022-10-31T02:40:17;11.50;93.70
35381;DHT22;21486;51.916;8.378;2022-10-31T02:43:03;11.50;93.70
35381;DHT22;21486;51.916;8.378;2022-10-31T02:45:41;11.50;93.60
35381;DHT22;21486;51.916;8.378;2022-10-31T02:48:12;11.50;93.80
35381;DHT22;21486;51.916;8.378;2022-10-31T02:50:41;11.60;93.80
35381;DHT22;21486;51.916;8.378;2022-10-31T02:53:08;11.70;93.80
35381;DHT22;21486;51.916;8.378;2022-10-31T02:58:07;11.80;93.50
35381;DHT22;21486;51.916;8.378;2022-10-31T03:06:35;11.90;93.40
35381;DHT22;21486;51.916;8.378;2022-10-31T03:09:34;12.00;93.40
35381;DHT22;21486;51.916;8.378;2022-10-31T03:14:43;12.00;93.30
35381;DHT22;21486;51.916;8.378;2022-10-31T03:17:41;12.10;93.20
35381;DHT22;21486;51.916;8.378;2022-10-31T03:20:10;12.20;93.20
35381;DHT22;21486;51.916;8.378;2022-10-31T03:22:39;12.20;92.90
35381;DHT22;21486;51.916;8.378;2022-10-31T03:25:07;12.20;92.80
35381;DHT22;21486;51.916;8.378;2022-10-31T03:27:35;12.10;93.00
35381;DHT22;21486;51.916;8.378;2022-10-31T03:30:05;12.20;93.10
35381;DHT22;21486;51.916;8.378;2022-10-31T03:32:45;12.10;92.70
35381;DHT22;21486;51.916;8.378;2022-10-31T03:35:15;12.10;92.60
35381;DHT22;21486;51.916;8.378;2022-10-31T03:37:42;12.00;92.70
35381;DHT22;21486;51.916;8.378;2022-10-31T03:40:09;11.90;92.60
35381;DHT22;21486;51.916;8.378;2022-10-31T03:42:39;11.90;92.90
35381;DHT22;21486;51.916;8.378;2022-10-31T03:45:12;11.80;93.00
35381;DHT22;21486;51.916;8.378;2022-10-31T03:47:40;11.70;93.20
35381;DHT22;21486;51.916;8.378;2022-10-31T03:50:07;11.70;93.40
35381;DHT22;21486;51.916;8.378;2022-10-31T03:52:42;11.60;93.60
35381;DHT22;21486;51.916;8.378;2022-10-31T03:55:20;11.50;93.40
35381;DHT22;21486;51.916;8.378;2022-10-31T03:57:57;11.50;93.40
35381;DHT22;21486;51.916;8.378;2022-10-31T04:00:24;11.40;93.50
35381;DHT22;21486;51.916;8.378;2022-10-31T04:03:16;11.40;93.40
35381;DHT22;21486;51.916;8.378;2022-10-31T04:05:45;11.30;93.60
35381;DHT22;21486;51.916;8.378;2022-10-31T04:08:15;11.30;93.60
35381;DHT22;21486;51.916;8.378;2022-10-31T04:10:43;11.20;93.80
35381;DHT22;21486;51.916;8.378;2022-10-31T04:13:14;11.20;93.90
35381;DHT22;21486;51.916;8.378;2022-10-31T04:15:43;11.20;93.70
35381;DHT22;21486;51.916;8.378;2022-10-31T04:18:10;11.20;93.50
35381;DHT22;21486;51.916;8.378;2022-10-31T04:20:41;11.00;93.60
35381;DHT22;21486;51.916;8.378;2022-10-31T04:23:18;11.00;93.80
35381;DHT22;21486;51.916;8.378;2022-10-31T04:25:44;11.00;94.00
35381;DHT22;21486;51.916;8.378;2022-10-31T04:28:09;10.90;94.10
35381;DHT22;21486;51.916;8.378;2022-10-31T04:30:35;11.00;93.90
35381;DHT22;21486;51.916;8.378;2022-10-31T04:33:00;10.90;94.00
35381;DHT22;21486;51.916;8.378;2022-10-31T04:35:26;11.00;93.70
35381;DHT22;21486;51.916;8.378;2022-10-31T04:37:51;10.80;94.00
35381;DHT22;21486;51.916;8.378;2022-10-31T04:40:17;10.90;94.20
35381;DHT22;21486;51.916;8.378;2022-10-31T04:42:42;10.80;94.40
35381;DHT22;21486;51.916;8.378;2022-10-31T04:45:08;10.90;94.30
35381;DHT22;21486;51.916;8.378;2022-10-31T04:47:34;10.80;94.30
35381;DHT22;21486;51.916;8.378;2022-10-31T04:50:00;10.80;94.10
35381;DHT22;21486;51.916;8.378;2022-10-31T04:52:26;10.80;94.00
35381;DHT22;21486;51.916;8.378;2022-10-31T04:54:51;10.90;94.10
35381;DHT22;21486;51.916;8.378;2022-10-31T04:57:17;10.80;94.30
35381;DHT22;21486;51.916;8.378;2022-10-31T04:59:42;10.70;94.50
35381;DHT22;21486;51.916;8.378;2022-10-31T05:02:08;10.70;94.40
35381;DHT22;21486;51.916;8.378;2022-10-31T05:04:34;10.70;94.50
35381;DHT22;21486;51.916;8.378;2022-10-31T05:06:59;10.80;94.30
35381;DHT22;21486;51.916;8.378;2022-10-31T05:09:25;10.70;94.20
35381;DHT22;21486;51.916;8.378;2022-10-31T05:11:50;10.70;94.30
35381;DHT22;21486;51.916;8.378;2022-10-31T05:14:16;10.70;94.30
35381;DHT22;21486;51.916;8.378;2022-10-31T05:16:41;10.70;94.40
35381;DHT22;21486;51.916;8.378;2022-10-31T05:19:07;10.60;94.40
35381;DHT22;21486;51.916;8.378;2022-10-31T05:21:32;10.60;94.40
35381;DHT22;21486;51.916;8.378;2022-10-31T05:23:58;10.70;94.40
35381;DHT22;21486;51.916;8.378;2022-10-31T05:26:24;10.60;94.30
35381;DHT22;21486;51.916;8.378;2022-10-31T05:28:49;10.60;94.20
35381;DHT22;21486;51.916;8.378;2022-10-31T05:31:15;10.60;94.40
35381;DHT22;21486;51.916;8.378;2022-10-31T05:33:41;10.50;94.40
35381;DHT22;21486;51.916;8.378;2022-10-31T05:36:06;10.40;94.10
35381;DHT22;21486;51.916;8.378;2022-10-31T05:38:32;10.40;94.30
35381;DHT22;21486;51.916;8.378;2022-10-31T05:40:58;10.40;94.40
35381;DHT22;21486;51.916;8.378;2022-10-31T05:43:25;10.40;94.30
35381;DHT22;21486;51.916;8.378;2022-10-31T05:45:54;10.40;94.10
35381;DHT22;21486;51.916;8.378;2022-10-31T05:48:20;10.40;94.20
35381;DHT22;21486;51.916;8.378;2022-10-31T05:50:47;10.30;94.00
35381;DHT22;21486;51.916;8.378;2022-10-31T05:53:13;10.30;94.20
35381;DHT22;21486;51.916;8.378;2022-10-31T05:55:39;10.20;94.50
35381;DHT22;21486;51.916;8.378;2022-10-31T05:58:06;10.30;94.60
35381;DHT22;21486;51.916;8.378;2022-10-31T06:00:32;10.40;94.50
35381;DHT22;21486;51.916;8.378;2022-10-31T06:03:02;10.50;94.50
35381;DHT22;21486;51.916;8.378;2022-10-31T06:05:28;10.50;94.40
35381;DHT22;21486;51.916;8.378;2022-10-31T06:07:54;10.50;94.10
35381;DHT22;21486;51.916;8.378;2022-10-31T06:10:20;10.40;94.20
35381;DHT22;21486;51.916;8.378;2022-10-31T06:12:46;10.40;94.30
35381;DHT22;21486;51.916;8.378;2022-10-31T06:15:12;10.30;94.40
35381;DHT22;21486;51.916;8.378;2022-10-31T06:17:37;10.30;94.80
35381;DHT22;21486;51.916;8.378;2022-10-31T06:20:04;10.30;94.60
35381;DHT22;21486;51.916;8.378;2022-10-31T06:22:30;10.40;94.50
35381;DHT22;21486;51.916;8.378;2022-10-31T06:24:55;10.40;94.20
35381;DHT22;21486;51.916;8.378;2022-10-31T06:27:21;10.40;94.10
35381;DHT22;21486;51.916;8.378;2022-10-31T06:29:47;10.40;94.30
35381;DHT22;21486;51.916;8.378;2022-10-31T06:32:13;10.50;94.20
35381;DHT22;21486;51.916;8.378;2022-10-31T06:34:39;10.50;94.10
35381;DHT22;21486;51.916;8.378;2022-10-31T06:37:12;10.60;93.80
35381;DHT22;21486;51.916;8.378;2022-10-31T06:39:38;10.50;93.80
35381;DHT22;21486;51.916;8.378;2022-10-31T06:42:04;10.50;93.90
35381;DHT22;21486;51.916;8.378;2022-10-31T06:44:30;10.50;93.90
35381;DHT22;21486;51.916;8.378;2022-10-31T06:46:55;10.50;93.90
35381;DHT22;21486;51.916;8.378;2022-10-31T06:49:21;10.40;93.90
35381;DHT22;21486;51.916;8.378;2022-10-31T06:51:48;10.50;93.90
35381;DHT22;21486;51.916;8.378;2022-10-31T06:54:14;10.50;93.60
35381;DHT22;21486;51.916;8.378;2022-10-31T06:56:39;10.50;93.80
35381;DHT22;21486;51.916;8.378;2022-10-31T06:59:05;10.50;94.00
35381;DHT22;21486;51.916;8.378;2022-10-31T07:01:30;10.50;93.90
35381;DHT22;21486;51.916;8.378;2022-10-31T07:03:56;10.60;94.00
35381;DHT22;21486;51.916;8.378;2022-10-31T07:06:22;10.60;94.00
35381;DHT22;21486;51.916;8.378;2022-10-31T07:08:47;10.70;94.00
35381;DHT22;21486;51.916;8.378;2022-10-31T07:11:13;10.70;94.00
35381;DHT22;21486;51.916;8.378;2022-10-31T07:13:38;10.80;94.00
35381;DHT22;21486;51.916;8.378;2022-10-31T07:16:05;10.90;93.70
35381;DHT22;21486;51.916;8.378;2022-10-31T07:18:36;11.00;93.70
35381;DHT22;21486;51.916;8.378;2022-10-31T07:21:01;11.10;93.60
35381;DHT22;21486;51.916;8.378;2022-10-31T07:23:27;11.10;93.50
35381;DHT22;21486;51.916;8.378;2022-10-31T07:25:56;11.20;93.40
35381;DHT22;21486;51.916;8.378;2022-10-31T07:28:22;11.30;93.40
35381;DHT22;21486;51.916;8.378;2022-10-31T07:30:56;11.40;93.30
35381;DHT22;21486;51.916;8.378;2022-10-31T07:33:22;11.60;93.20
35381;DHT22;21486;51.916;8.378;2022-10-31T07:35:48;11.70;93.10
35381;DHT22;21486;51.916;8.378;2022-10-31T07:38:14;11.80;93.00
35381;DHT22;21486;51.916;8.378;2022-10-31T07:40:41;12.00;92.80
35381;DHT22;21486;51.916;8.378;2022-10-31T07:43:07;12.20;92.80
35381;DHT22;21486;51.916;8.378;2022-10-31T07:45:33;12.40;92.10
35381;DHT22;21486;51.916;8.378;2022-10-31T07:47:59;12.60;92.00
35381;DHT22;21486;51.916;8.378;2022-10-31T07:50:27;12.70;91.40
35381;DHT22;21486;51.916;8.378;2022-10-31T07:53:04;12.90;91.20
35381;DHT22;21486;51.916;8.378;2022-10-31T07:55:31;13.00;91.20
35381;DHT22;21486;51.916;8.378;2022-10-31T07:58:01;13.10;90.70
35381;DHT22;21486;51.916;8.378;2022-10-31T08:00:28;13.20;90.50
35381;DHT22;21486;51.916;8.378;2022-10-31T08:03:07;13.30;90.50
35381;DHT22;21486;51.916;8.378;2022-10-31T08:05:33;13.30;90.50
35381;DHT22;21486;51.916;8.378;2022-10-31T08:07:59;13.40;90.60
35381;DHT22;21486;51.916;8.378;2022-10-31T08:10:26;13.50;90.20
35381;DHT22;21486;51.916;8.378;2022-10-31T08:13:04;13.60;90.30
35381;DHT22;21486;51.916;8.378;2022-10-31T08:15:31;13.70;89.60
35381;DHT22;21486;51.916;8.378;2022-10-31T08:17:57;13.90;88.90
35381;DHT22;21486;51.916;8.378;2022-10-31T08:20:23;13.90;88.50
35381;DHT22;21486;51.916;8.378;2022-10-31T08:23:00;13.90;88.60
35381;DHT22;21486;51.916;8.378;2022-10-31T08:25:27;13.90;89.00
35381;DHT22;21486;51.916;8.378;2022-10-31T08:27:54;14.00;88.90
35381;DHT22;21486;51.916;8.378;2022-10-31T08:30:21;13.90;88.80
35381;DHT22;21486;51.916;8.378;2022-10-31T08:32:47;14.00;88.50
35381;DHT22;21486;51.916;8.378;2022-10-31T08:35:22;14.00;89.30
35381;DHT22;21486;51.916;8.378;2022-10-31T08:37:55;14.10;89.10
35381;DHT22;21486;51.916;8.378;2022-10-31T08:40:22;14.20;88.60
35381;DHT22;21486;51.916;8.378;2022-10-31T08:42:54;14.20;88.00
35381;DHT22;21486;51.916;8.378;2022-10-31T08:45:20;14.20;88.40
35381;DHT22;21486;51.916;8.378;2022-10-31T08:47:46;14.20;88.40
35381;DHT22;21486;51.916;8.378;2022-10-31T08:50:11;14.30;88.80
35381;DHT22;21486;51.916;8.378;2022-10-31T08:52:37;14.40;88.60
35381;DHT22;21486;51.916;8.378;2022-10-31T08:55:03;14.70;87.00
35381;DHT22;21486;51.916;8.378;2022-10-31T08:57:28;14.90;87.00
35381;DHT22;21486;51.916;8.378;2022-10-31T08:59:54;15.10;85.90
35381;DHT22;21486;51.916;8.378;2022-10-31T09:02:19;15.40;85.30
35381;DHT22;21486;51.916;8.378;2022-10-31T09:04:45;15.60;83.50
35381;DHT22;21486;51.916;8.378;2022-10-31T09:07:10;15.70;83.20
35381;DHT22;21486;51.916;8.378;2022-10-31T09:09:36;15.90;81.70
35381;DHT22;21486;51.916;8.378;2022-10-31T09:12:01;16.00;82.10
35381;DHT22;21486;51.916;8.378;2022-10-31T09:14:27;15.90;82.00
35381;DHT22;21486;51.916;8.378;2022-10-31T09:16:52;15.90;82.40
35381;DHT22;21486;51.916;8.378;2022-10-31T09:19:18;15.80;82.20
35381;DHT22;21486;51.916;8.378;2022-10-31T09:21:43;15.90;82.70
35381;DHT22;21486;51.916;8.378;2022-10-31T09:24:09;16.10;83.00
35381;DHT22;21486;51.916;8.378;2022-10-31T09:26:35;16.20;82.50
35381;DHT22;21486;51.916;8.378;2022-10-31T09:29:00;16.30;81.90
35381;DHT22;21486;51.916;8.378;2022-10-31T09:31:27;16.20;81.00
35381;DHT22;21486;51.916;8.378;2022-10-31T09:33:54;16.20;81.70
35381;DHT22;21486;51.916;8.378;2022-10-31T09:36:19;16.20;81.20
35381;DHT22;21486;51.916;8.378;2022-10-31T09:38:45;16.20;82.40
35381;DHT22;21486;51.916;8.378;2022-10-31T09:47:02;16.60;80.50
35381;DHT22;21486;51.916;8.378;2022-10-31T09:52:32;16.70;81.10
35381;DHT22;21486;51.916;8.378;2022-10-31T09:55:18;16.80;80.00
35381;DHT22;21486;51.916;8.378;2022-10-31T09:57:44;16.80;79.90
35381;DHT22;21486;51.916;8.378;2022-10-31T10:00:21;17.00;80.00
35381;DHT22;21486;51.916;8.378;2022-10-31T10:05:49;17.20;79.20
35381;DHT22;21486;51.916;8.378;2022-10-31T10:08:19;17.50;78.20
35381;DHT22;21486;51.916;8.378;2022-10-31T10:13:45;17.80;76.90
35381;DHT22;21486;51.916;8.378;2022-10-31T10:30:07;19.30;72.30
35381;DHT22;21486;51.916;8.378;2022-10-31T10:32:55;19.40;71.70
35381;DHT22;21486;51.916;8.378;2022-10-31T10:35:33;19.80;70.60
35381;DHT22;21486;51.916;8.378;2022-10-31T10:38:27;20.10;69.60
35381;DHT22;21486;51.916;8.378;2022-10-31T10:40:54;20.30;68.20
35381;DHT22;21486;51.916;8.378;2022-10-31T10:43:22;19.90;68.70
35381;DHT22;21486;51.916;8.378;2022-10-31T10:45:59;20.00;69.10
35381;DHT22;21486;51.916;8.378;2022-10-31T10:48:53;19.90;69.60
35381;DHT22;21486;51.916;8.378;2022-10-31T10:51:23;20.10;68.70
35381;DHT22;21486;51.916;8.378;2022-10-31T10:54:21;19.80;69.50
35381;DHT22;21486;51.916;8.378;2022-10-31T10:56:58;20.20;69.20
35381;DHT22;21486;51.916;8.378;2022-10-31T10:59:24;20.60;67.00
35381;DHT22;21486;51.916;8.378;2022-10-31T11:01:51;20.50;66.90
35381;DHT22;21486;51.916;8.378;2022-10-31T11:04:33;20.50;66.50
35381;DHT22;21486;51.916;8.378;2022-10-31T11:07:02;20.00;68.50
35381;DHT22;21486;51.916;8.378;2022-10-31T11:09:28;20.20;68.90
35381;DHT22;21486;51.916;8.378;2022-10-31T11:11:54;20.40;67.80
35381;DHT22;21486;51.916;8.378;2022-10-31T11:14:21;20.50;67.20
35381;DHT22;21486;51.916;8.378;2022-10-31T11:16:51;20.90;66.70
35381;DHT22;21486;51.916;8.378;2022-10-31T11:19:20;20.80;65.90
35381;DHT22;21486;51.916;8.378;2022-10-31T11:21:47;20.60;66.80
35381;DHT22;21486;51.916;8.378;2022-10-31T11:24:15;20.60;67.00
35381;DHT22;21486;51.916;8.378;2022-10-31T11:26:43;20.30;67.90
35381;DHT22;21486;51.916;8.378;2022-10-31T11:29:20;20.20;68.50
35381;DHT22;21486;51.916;8.378;2022-10-31T11:31:47;20.00;69.90
35381;DHT22;21486;51.916;8.378;2022-10-31T11:34:22;19.40;70.90
35381;DHT22;21486;51.916;8.378;2022-10-31T11:36:51;19.10;72.70
35381;DHT22;21486;51.916;8.378;2022-10-31T11:39:22;18.80;73.90
35381;DHT22;21486;51.916;8.378;2022-10-31T11:41:49;18.80;74.00
35381;DHT22;21486;51.916;8.378;2022-10-31T11:44:17;18.80;73.90
35381;DHT22;21486;51.916;8.378;2022-10-31T11:46:50;18.70;74.50
35381;DHT22;21486;51.916;8.378;2022-10-31T11:49:32;18.50;75.60
35381;DHT22;21486;51.916;8.378;2022-10-31T11:52:04;18.60;75.30
35381;DHT22;21486;51.916;8.378;2022-10-31T11:54:55;18.60;74.70
35381;DHT22;21486;51.916;8.378;2022-10-31T11:57:33;18.50;75.40
35381;DHT22;21486;51.916;8.378;2022-10-31T12:02:46;18.40;75.60
35381;DHT22;21486;51.916;8.378;2022-10-31T12:05:18;18.50;76.30
35381;DHT22;21486;51.916;8.378;2022-10-31T12:07:48;18.40;76.00
35381;DHT22;21486;51.916;8.378;2022-10-31T12:10:14;18.60;75.30
35381;DHT22;21486;51.916;8.378;2022-10-31T12:15:33;19.00;73.80
35381;DHT22;21486;51.916;8.378;2022-10-31T12:20:59;19.30;73.30
35381;DHT22;21486;51.916;8.378;2022-10-31T12:26:46;19.40;72.20
35381;DHT22;21486;51.916;8.378;2022-10-31T12:37:53;19.20;73.40
35381;DHT22;21486;51.916;8.378;2022-10-31T12:41:03;19.00;74.50
35381;DHT22;21486;51.916;8.378;2022-10-31T12:43:57;19.00;75.00
35381;DHT22;21486;51.916;8.378;2022-10-31T12:57:00;19.00;74.40
35381;DHT22;21486;51.916;8.378;2022-10-31T13:02:44;19.00;74.80
35381;DHT22;21486;51.916;8.378;2022-10-31T13:05:12;19.10;74.80
35381;DHT22;21486;51.916;8.378;2022-10-31T13:10:31;19.20;74.20
35381;DHT22;21486;51.916;8.378;2022-10-31T13:13:05;19.10;74.20
35381;DHT22;21486;51.916;8.378;2022-10-31T13:15:40;19.00;74.30
35381;DHT22;21486;51.916;8.378;2022-10-31T13:18:22;19.10;73.70
35381;DHT22;21486;51.916;8.378;2022-10-31T13:20:51;19.20;73.40
35381;DHT22;21486;51.916;8.378;2022-10-31T13:23:29;19.20;71.90
35381;DHT22;21486;51.916;8.378;2022-10-31T13:25:57;18.90;72.20
35381;DHT22;21486;51.916;8.378;2022-10-31T13:28:53;19.00;71.80
35381;DHT22;21486;51.916;8.378;2022-10-31T13:31:15;19.20;71.50
35381;DHT22;21486;51.916;8.378;2022-10-31T13:33:47;19.00;71.70
35381;DHT22;21486;51.916;8.378;2022-10-31T13:36:35;19.00;72.10
35381;DHT22;21486;51.916;8.378;2022-10-31T13:39:20;19.10;72.20
35381;DHT22;21486;51.916;8.378;2022-10-31T13:41:53;19.10;71.90
35381;DHT22;21486;51.916;8.378;2022-10-31T13:44:24;19.10;71.60
35381;DHT22;21486;51.916;8.378;2022-10-31T13:46:51;19.10;71.80
35381;DHT22;21486;51.916;8.378;2022-10-31T13:49:38;19.20;71.60
35381;DHT22;21486;51.916;8.378;2022-10-31T13:54:47;19.20;71.40
35381;DHT22;21486;51.916;8.378;2022-10-31T13:57:21;19.10;71.20
35381;DHT22;21486;51.916;8.378;2022-10-31T13:59:53;19.10;71.70
35381;DHT22;21486;51.916;8.378;2022-10-31T14:02:29;19.10;71.60
35381;DHT22;21486;51.916;8.378;2022-10-31T14:05:05;19.00;71.50
35381;DHT22;21486;51.916;8.378;2022-10-31T14:07:32;19.00;71.80
35381;DHT22;21486;51.916;8.378;2022-10-31T14:10:03;19.00;72.00
35381;DHT22;21486;51.916;8.378;2022-10-31T14:12:37;18.90;72.10
35381;DHT22;21486;51.916;8.378;2022-10-31T14:15:25;18.80;72.40
35381;DHT22;21486;51.916;8.378;2022-10-31T14:18:04;18.80;72.60
35381;DHT22;21486;51.916;8.378;2022-10-31T14:20:38;18.80;72.80
35381;DHT22;21486;51.916;8.378;2022-10-31T14:28:44;18.80;73.00
35381;DHT22;21486;51.916;8.378;2022-10-31T14:31:36;18.80;72.90
35381;DHT22;21486;51.916;8.378;2022-10-31T14:45:23;18.60;73.60
35381;DHT22;21486;51.916;8.378;2022-10-31T14:50:51;18.50;74.10
35381;DHT22;21486;51.916;8.378;2022-10-31T14:53:27;18.40;74.30
35381;DHT22;21486;51.916;8.378;2022-10-31T14:55:56;18.40;74.00
35381;DHT22;21486;51.916;8.378;2022-10-31T14:58:39;18.30;74.00
35381;DHT22;21486;51.916;8.378;2022-10-31T15:01:06;18.20;74.40
35381;DHT22;21486;51.916;8.378;2022-10-31T15:03:39;18.20;74.80
35381;DHT22;21486;51.916;8.378;2022-10-31T15:06:13;18.10;75.10
35381;DHT22;21486;51.916;8.378;2022-10-31T15:11:19;18.10;75.00
35381;DHT22;21486;51.916;8.378;2022-10-31T15:13:49;18.10;74.90
35381;DHT22;21486;51.916;8.378;2022-10-31T15:16:24;18.10;75.20
35381;DHT22;21486;51.916;8.378;2022-10-31T15:19:02;18.10;75.10
35381;DHT22;21486;51.916;8.378;2022-10-31T15:21:29;18.20;75.10
35381;DHT22;21486;51.916;8.378;2022-10-31T15:23:57;18.00;75.10
35381;DHT22;21486;51.916;8.378;2022-10-31T15:26:28;18.00;75.10
35381;DHT22;21486;51.916;8.378;2022-10-31T15:29:15;18.10;75.00
35381;DHT22;21486;51.916;8.378;2022-10-31T15:31:58;18.10;75.40
35381;DHT22;21486;51.916;8.378;2022-10-31T15:34:39;18.00;75.30
35381;DHT22;21486;51.916;8.378;2022-10-31T15:37:13;18.00;75.70
35381;DHT22;21486;51.916;8.378;2022-10-31T15:39:40;17.80;75.90
35381;DHT22;21486;51.916;8.378;2022-10-31T15:42:38;17.80;76.40
35381;DHT22;21486;51.916;8.378;2022-10-31T15:45:16;17.70;76.50
35381;DHT22;21486;51.916;8.378;2022-10-31T15:47:47;17.70;76.40
35381;DHT22;21486;51.916;8.378;2022-10-31T15:50:32;17.70;76.50
35381;DHT22;21486;51.916;8.378;2022-10-31T15:52:59;17.70;76.40
35381;DHT22;21486;51.916;8.378;2022-10-31T15:55:27;17.70;76.70
35381;DHT22;21486;51.916;8.378;2022-10-31T15:58:00;17.60;76.60
35381;DHT22;21486;51.916;8.378;2022-10-31T16:00:36;17.50;77.00
35381;DHT22;21486;51.916;8.378;2022-10-31T16:05:54;17.50;77.20
35381;DHT22;21486;51.916;8.378;2022-10-31T16:11:16;17.40;78.50
35381;DHT22;21486;51.916;8.378;2022-10-31T16:14:06;17.40;78.00
35381;DHT22;21486;51.916;8.378;2022-10-31T16:16:39;17.30;78.20
35381;DHT22;21486;51.916;8.378;2022-10-31T16:19:33;17.20;78.90
35381;DHT22;21486;51.916;8.378;2022-10-31T16:22:09;17.10;79.30
35381;DHT22;21486;51.916;8.378;2022-10-31T16:24:54;17.00;79.90
35381;DHT22;21486;51.916;8.378;2022-10-31T16:27:27;16.90;80.60
35381;DHT22;21486;51.916;8.378;2022-10-31T16:29:55;16.80;80.70
35381;DHT22;21486;51.916;8.378;2022-10-31T16:37:37;16.60;81.50
35381;DHT22;21486;51.916;8.378;2022-10-31T16:40:03;16.70;81.70
35381;DHT22;21486;51.916;8.378;2022-10-31T16:42:29;16.60;81.60
35381;DHT22;21486;51.916;8.378;2022-10-31T16:44:54;16.70;81.60
35381;DHT22;21486;51.916;8.378;2022-10-31T16:47:20;16.60;81.70
35381;DHT22;21486;51.916;8.378;2022-10-31T16:49:49;16.60;81.80
35381;DHT22;21486;51.916;8.378;2022-10-31T16:52:16;16.70;82.00
35381;DHT22;21486;51.916;8.378;2022-10-31T16:54:42;16.60;82.00
35381;DHT22;21486;51.916;8.378;2022-10-31T16:57:12;16.70;82.20
35381;DHT22;21486;51.916;8.378;2022-10-31T16:59:39;16.70;81.30
35381;DHT22;21486;51.916;8.378;2022-10-31T17:02:06;16.90;80.90
35381;DHT22;21486;51.916;8.378;2022-10-31T17:04:35;16.80;80.90
35381;DHT22;21486;51.916;8.378;2022-10-31T17:07:00;16.80;80.90
35381;DHT22;21486;51.916;8.378;2022-10-31T17:09:26;16.90;80.50
35381;DHT22;21486;51.916;8.378;2022-10-31T17:11:52;17.00;80.40
35381;DHT22;21486;51.916;8.378;2022-10-31T17:14:18;16.90;80.20
35381;DHT22;21486;51.916;8.378;2022-10-31T17:16:44;16.90;80.20
35381;DHT22;21486;51.916;8.378;2022-10-31T17:19:10;16.90;80.50
35381;DHT22;21486;51.916;8.378;2022-10-31T17:21:37;16.90;81.40
35381;DHT22;21486;51.916;8.378;2022-10-31T17:24:03;16.80;81.10
35381;DHT22;21486;51.916;8.378;2022-10-31T17:26:28;16.70;81.60
35381;DHT22;21486;51.916;8.378;2022-10-31T17:28:54;16.70;81.60
35381;DHT22;21486;51.916;8.378;2022-10-31T17:31:21;16.60;81.80
35381;DHT22;21486;51.916;8.378;2022-10-31T17:33:46;16.60;82.30
35381;DHT22;21486;51.916;8.378;2022-10-31T17:36:12;16.60;82.20
35381;DHT22;21486;51.916;8.378;2022-10-31T17:38:38;16.70;81.90
35381;DHT22;21486;51.916;8.378;2022-10-31T17:41:07;16.70;81.90
35381;DHT22;21486;51.916;8.378;2022-10-31T17:43:33;16.60;81.80
35381;DHT22;21486;51.916;8.378;2022-10-31T17:45:59;16.60;82.20
35381;DHT22;21486;51.916;8.378;2022-10-31T17:48:25;16.50;82.40
35381;DHT22;21486;51.916;8.378;2022-10-31T17:50:51;16.50;82.50
35381;DHT22;21486;51.916;8.378;2022-10-31T17:53:16;16.50;82.70
35381;DHT22;21486;51.916;8.378;2022-10-31T17:55:42;16.50;82.70